Terminal Aerodrome Forecast
Issued by NWS

Home | Current Version | Previous Version | Text Only | Print | Product List | Glossary On
Versions: 1 2 3 4 5 6 7 8 9 10 11 12 13 14 15 16 17 18 19
092
FTPA31 PHFO 110706 AAA
TAFHOG
TAF AMD
PHOG 110706Z 1107/1206 15005KT 6SM RA SCT010 BKN030 OVC045
     FM110900 18005KT P6SM VCSH SCT010 BKN045
     FM112200 02008KT P6SM VCSH FEW030 BKN060
      AMD LTD TO VIS AND WIND 1109/1116=

USA.gov is the U.S. government's official web portal to all federal, state and local government web resources and services.